Portada
METAR-TAF:

METAR-TAF

Aeroports :

Bentonville Municipal Airport/Louise M Thaden Field

Bentonville, Arkansas, Estats Units d'Amèrica

latitud: 36-21N, longitud: 094-13W, altitud: 395 m

Observació

L'informe es va fer fa 16 minuts, a les 19:56 UTC
Vent 13 kt del Sud/Sud-Oest amb ràfegues de 16 kt
Temperatura 28°C
Humitat 62%
Pressió 1008 hPa
Visibilitat: 16.1 km
Escasses núvols a una alçada de 3900 ft
Cel ennuvolat a una alçada de 6000 ft

METAR: KVBT 271956Z AUTO 20013G16KT 10SM FEW039 BKN060 28/20 A2977 RMK AO2 SLP073 T02830200 TSNO

Hora: 15:12 (20:12 UTC)


TAF: manca

Observacions i pronòstics meteorològics de més de 4000 aeroports (METAR i TAF).

Les estacions disponibles són els punts grocs i vermells al mapa.

Posi el ratolí al punt desitjat per veure el nom de l'estació.

Feu clic per veure les observacions i els pronòstics meteorològics.

Per canviar el mapa: feu clic els botons verds amb una creu de color negre per apropar; al botó verd amb un guió per allunyar la imatge; o en les fletxes verdes per a mapes adjacents.


METAR-TAF: